sensor_id;sensor_type;location;lat;lon;timestamp;P1;durP1;ratioP1;P2;durP2;ratioP2
4430;SDS011;2228;48.140;11.488;2022-09-21T00:01:23;10.73;;;5.13;;
4430;SDS011;2228;48.140;11.488;2022-09-21T00:03:52;12.38;;;5.40;;
4430;SDS011;2228;48.140;11.488;2022-09-21T00:06:20;7.05;;;4.10;;
4430;SDS011;2228;48.140;11.488;2022-09-21T00:08:48;11.90;;;4.70;;
4430;SDS011;2228;48.140;11.488;2022-09-21T00:11:15;9.98;;;5.57;;
4430;SDS011;2228;48.140;11.488;2022-09-21T00:13:44;14.88;;;6.65;;
4430;SDS011;2228;48.140;11.488;2022-09-21T00:16:12;12.88;;;6.10;;
4430;SDS011;2228;48.140;11.488;2022-09-21T00:18:41;10.75;;;6.15;;
4430;SDS011;2228;48.140;11.488;2022-09-21T00:21:09;14.50;;;5.88;;
4430;SDS011;2228;48.140;11.488;2022-09-21T00:23:37;10.82;;;5.60;;
4430;SDS011;2228;48.140;11.488;2022-09-21T00:26:05;15.00;;;6.30;;
4430;SDS011;2228;48.140;11.488;2022-09-21T00:28:33;14.40;;;6.87;;
4430;SDS011;2228;48.140;11.488;2022-09-21T00:31:01;12.70;;;6.57;;
4430;SDS011;2228;48.140;11.488;2022-09-21T00:33:28;10.73;;;6.30;;
4430;SDS011;2228;48.140;11.488;2022-09-21T00:36:00;11.35;;;6.70;;
4430;SDS011;2228;48.140;11.488;2022-09-21T00:38:27;10.15;;;5.70;;
4430;SDS011;2228;48.140;11.488;2022-09-21T00:40:54;7.80;;;5.83;;
4430;SDS011;2228;48.140;11.488;2022-09-21T00:43:21;11.17;;;5.80;;
4430;SDS011;2228;48.140;11.488;2022-09-21T00:45:48;9.25;;;5.57;;
4430;SDS011;2228;48.140;11.488;2022-09-21T00:48:18;13.85;;;6.93;;
4430;SDS011;2228;48.140;11.488;2022-09-21T00:50:47;9.60;;;5.80;;
4430;SDS011;2228;48.140;11.488;2022-09-21T00:53:19;11.70;;;5.45;;
4430;SDS011;2228;48.140;11.488;2022-09-21T00:55:47;13.60;;;6.50;;
4430;SDS011;2228;48.140;11.488;2022-09-21T00:58:18;15.53;;;6.57;;
4430;SDS011;2228;48.140;11.488;2022-09-21T01:00:49;7.28;;;4.90;;
4430;SDS011;2228;48.140;11.488;2022-09-21T01:03:16;8.25;;;5.20;;
4430;SDS011;2228;48.140;11.488;2022-09-21T01:05:43;11.23;;;6.25;;
4430;SDS011;2228;48.140;11.488;2022-09-21T01:08:10;10.77;;;6.30;;
4430;SDS011;2228;48.140;11.488;2022-09-21T01:10:43;11.02;;;5.90;;
4430;SDS011;2228;48.140;11.488;2022-09-21T01:13:19;10.00;;;5.40;;
4430;SDS011;2228;48.140;11.488;2022-09-21T01:15:55;10.90;;;5.43;;
4430;SDS011;2228;48.140;11.488;2022-09-21T01:18:27;10.53;;;5.30;;
4430;SDS011;2228;48.140;11.488;2022-09-21T01:21:07;11.43;;;4.97;;
4430;SDS011;2228;48.140;11.488;2022-09-21T01:23:49;13.10;;;4.93;;
4430;SDS011;2228;48.140;11.488;2022-09-21T01:26:53;12.15;;;5.85;;
4430;SDS011;2228;48.140;11.488;2022-09-21T01:29:43;10.40;;;5.70;;
4430;SDS011;2228;48.140;11.488;2022-09-21T01:32:15;12.00;;;5.20;;
4430;SDS011;2228;48.140;11.488;2022-09-21T01:34:48;8.70;;;5.55;;
4430;SDS011;2228;48.140;11.488;2022-09-21T01:37:20;12.48;;;6.20;;
4430;SDS011;2228;48.140;11.488;2022-09-21T01:39:51;10.15;;;5.30;;
4430;SDS011;2228;48.140;11.488;2022-09-21T01:42:22;15.23;;;6.33;;
4430;SDS011;2228;48.140;11.488;2022-09-21T01:44:53;9.75;;;5.75;;
4430;SDS011;2228;48.140;11.488;2022-09-21T01:47:23;10.30;;;5.73;;
4430;SDS011;2228;48.140;11.488;2022-09-21T01:49:51;15.15;;;6.72;;
4430;SDS011;2228;48.140;11.488;2022-09-21T01:52:30;11.77;;;6.60;;
4430;SDS011;2228;48.140;11.488;2022-09-21T01:55:03;11.63;;;6.07;;
4430;SDS011;2228;48.140;11.488;2022-09-21T01:57:36;8.27;;;5.28;;
4430;SDS011;2228;48.140;11.488;2022-09-21T02:00:08;9.30;;;5.50;;
4430;SDS011;2228;48.140;11.488;2022-09-21T02:02:49;13.90;;;5.90;;
4430;SDS011;2228;48.140;11.488;2022-09-21T02:05:19;12.40;;;6.32;;
4430;SDS011;2228;48.140;11.488;2022-09-21T02:07:48;9.83;;;5.90;;
4430;SDS011;2228;48.140;11.488;2022-09-21T02:10:17;11.10;;;5.45;;
4430;SDS011;2228;48.140;11.488;2022-09-21T02:12:48;9.13;;;4.90;;
4430;SDS011;2228;48.140;11.488;2022-09-21T02:15:21;10.13;;;5.00;;
4430;SDS011;2228;48.140;11.488;2022-09-21T02:17:55;8.33;;;5.33;;
4430;SDS011;2228;48.140;11.488;2022-09-21T02:20:29;10.43;;;4.88;;
4430;SDS011;2228;48.140;11.488;2022-09-21T02:23:00;8.68;;;4.97;;
4430;SDS011;2228;48.140;11.488;2022-09-21T02:25:35;9.32;;;5.00;;
4430;SDS011;2228;48.140;11.488;2022-09-21T02:28:11;10.43;;;4.63;;
4430;SDS011;2228;48.140;11.488;2022-09-21T02:30:52;8.38;;;4.32;;
4430;SDS011;2228;48.140;11.488;2022-09-21T02:33:27;9.02;;;4.85;;
4430;SDS011;2228;48.140;11.488;2022-09-21T02:35:58;11.82;;;5.10;;
4430;SDS011;2228;48.140;11.488;2022-09-21T02:38:33;11.70;;;5.63;;
4430;SDS011;2228;48.140;11.488;2022-09-21T02:41:05;9.32;;;5.30;;
4430;SDS011;2228;48.140;11.488;2022-09-21T02:43:42;8.37;;;4.93;;
4430;SDS011;2228;48.140;11.488;2022-09-21T02:46:14;7.40;;;4.88;;
4430;SDS011;2228;48.140;11.488;2022-09-21T02:48:45;8.00;;;4.70;;
4430;SDS011;2228;48.140;11.488;2022-09-21T02:51:15;6.63;;;4.10;;
4430;SDS011;2228;48.140;11.488;2022-09-21T02:53:46;9.98;;;4.35;;
4430;SDS011;2228;48.140;11.488;2022-09-21T02:56:17;6.80;;;4.25;;
4430;SDS011;2228;48.140;11.488;2022-09-21T02:58:46;7.10;;;4.50;;
4430;SDS011;2228;48.140;11.488;2022-09-21T03:01:17;6.30;;;4.40;;
4430;SDS011;2228;48.140;11.488;2022-09-21T03:03:45;7.72;;;4.50;;
4430;SDS011;2228;48.140;11.488;2022-09-21T03:06:11;6.72;;;4.13;;
4430;SDS011;2228;48.140;11.488;2022-09-21T03:08:38;7.53;;;5.25;;
4430;SDS011;2228;48.140;11.488;2022-09-21T03:11:05;11.38;;;4.43;;
4430;SDS011;2228;48.140;11.488;2022-09-21T03:13:34;9.20;;;4.95;;
4430;SDS011;2228;48.140;11.488;2022-09-21T03:16:03;8.48;;;5.13;;
4430;SDS011;2228;48.140;11.488;2022-09-21T03:18:33;7.00;;;4.50;;
4430;SDS011;2228;48.140;11.488;2022-09-21T03:21:00;7.90;;;4.70;;
4430;SDS011;2228;48.140;11.488;2022-09-21T03:23:27;12.93;;;6.20;;
4430;SDS011;2228;48.140;11.488;2022-09-21T03:25:54;13.77;;;5.87;;
4430;SDS011;2228;48.140;11.488;2022-09-21T03:28:21;12.07;;;6.00;;
4430;SDS011;2228;48.140;11.488;2022-09-21T03:30:49;10.73;;;5.63;;
4430;SDS011;2228;48.140;11.488;2022-09-21T03:33:16;8.93;;;4.70;;
4430;SDS011;2228;48.140;11.488;2022-09-21T03:35:46;9.27;;;5.00;;
4430;SDS011;2228;48.140;11.488;2022-09-21T03:38:13;11.68;;;5.32;;
4430;SDS011;2228;48.140;11.488;2022-09-21T03:40:43;8.50;;;4.30;;
4430;SDS011;2228;48.140;11.488;2022-09-21T03:43:10;10.20;;;4.90;;
4430;SDS011;2228;48.140;11.488;2022-09-21T03:45:37;8.85;;;4.97;;
4430;SDS011;2228;48.140;11.488;2022-09-21T03:48:07;9.50;;;4.53;;
4430;SDS011;2228;48.140;11.488;2022-09-21T03:50:35;9.77;;;5.15;;
4430;SDS011;2228;48.140;11.488;2022-09-21T03:53:03;9.02;;;4.43;;
4430;SDS011;2228;48.140;11.488;2022-09-21T03:55:30;10.65;;;4.60;;
4430;SDS011;2228;48.140;11.488;2022-09-21T03:57:57;7.40;;;3.63;;
4430;SDS011;2228;48.140;11.488;2022-09-21T04:00:24;8.95;;;4.30;;
4430;SDS011;2228;48.140;11.488;2022-09-21T04:02:51;5.70;;;3.97;;
4430;SDS011;2228;48.140;11.488;2022-09-21T04:05:18;9.67;;;3.93;;
4430;SDS011;2228;48.140;11.488;2022-09-21T04:07:45;8.67;;;3.70;;
4430;SDS011;2228;48.140;11.488;2022-09-21T04:10:14;6.37;;;3.50;;
4430;SDS011;2228;48.140;11.488;2022-09-21T04:12:44;7.97;;;3.90;;
4430;SDS011;2228;48.140;11.488;2022-09-21T04:15:11;14.30;;;4.40;;
4430;SDS011;2228;48.140;11.488;2022-09-21T04:17:40;7.30;;;4.57;;
4430;SDS011;2228;48.140;11.488;2022-09-21T04:20:07;9.70;;;4.45;;
4430;SDS011;2228;48.140;11.488;2022-09-21T04:22:34;6.72;;;3.90;;
4430;SDS011;2228;48.140;11.488;2022-09-21T04:25:01;8.43;;;4.82;;
4430;SDS011;2228;48.140;11.488;2022-09-21T04:27:30;11.52;;;4.70;;
4430;SDS011;2228;48.140;11.488;2022-09-21T04:29:57;7.53;;;4.60;;
4430;SDS011;2228;48.140;11.488;2022-09-21T04:32:24;11.20;;;5.95;;
4430;SDS011;2228;48.140;11.488;2022-09-21T04:34:51;8.03;;;5.20;;
4430;SDS011;2228;48.140;11.488;2022-09-21T04:37:18;9.23;;;5.00;;
4430;SDS011;2228;48.140;11.488;2022-09-21T04:39:44;9.02;;;4.60;;
4430;SDS011;2228;48.140;11.488;2022-09-21T04:42:11;7.97;;;4.10;;
4430;SDS011;2228;48.140;11.488;2022-09-21T04:44:39;8.50;;;4.55;;
4430;SDS011;2228;48.140;11.488;2022-09-21T04:47:06;10.43;;;4.50;;
4430;SDS011;2228;48.140;11.488;2022-09-21T04:49:33;9.40;;;5.20;;
4430;SDS011;2228;48.140;11.488;2022-09-21T04:52:00;12.10;;;5.35;;
4430;SDS011;2228;48.140;11.488;2022-09-21T04:54:27;11.75;;;5.18;;
4430;SDS011;2228;48.140;11.488;2022-09-21T04:56:54;10.82;;;5.20;;
4430;SDS011;2228;48.140;11.488;2022-09-21T04:59:21;9.15;;;4.70;;
4430;SDS011;2228;48.140;11.488;2022-09-21T05:01:49;8.30;;;4.93;;
4430;SDS011;2228;48.140;11.488;2022-09-21T05:04:16;8.85;;;5.70;;
4430;SDS011;2228;48.140;11.488;2022-09-21T05:06:42;11.13;;;6.18;;
4430;SDS011;2228;48.140;11.488;2022-09-21T05:09:09;9.32;;;5.53;;
4430;SDS011;2228;48.140;11.488;2022-09-21T05:11:54;10.30;;;5.47;;
4430;SDS011;2228;48.140;11.488;2022-09-21T05:14:20;8.73;;;4.60;;
4430;SDS011;2228;48.140;11.488;2022-09-21T05:16:48;10.70;;;4.88;;
4430;SDS011;2228;48.140;11.488;2022-09-21T05:19:15;13.05;;;5.85;;
4430;SDS011;2228;48.140;11.488;2022-09-21T05:21:42;9.40;;;5.47;;
4430;SDS011;2228;48.140;11.488;2022-09-21T05:24:10;8.88;;;5.22;;
4430;SDS011;2228;48.140;11.488;2022-09-21T05:26:37;13.25;;;4.93;;
4430;SDS011;2228;48.140;11.488;2022-09-21T05:29:04;8.35;;;4.97;;
4430;SDS011;2228;48.140;11.488;2022-09-21T05:31:39;13.80;;;6.45;;
4430;SDS011;2228;48.140;11.488;2022-09-21T05:34:15;11.13;;;6.57;;
4430;SDS011;2228;48.140;11.488;2022-09-21T05:36:53;11.07;;;6.00;;
4430;SDS011;2228;48.140;11.488;2022-09-21T05:39:27;11.37;;;5.73;;
4430;SDS011;2228;48.140;11.488;2022-09-21T05:41:54;13.48;;;5.30;;
4430;SDS011;2228;48.140;11.488;2022-09-21T05:44:22;10.02;;;5.85;;
4430;SDS011;2228;48.140;11.488;2022-09-21T05:46:49;13.52;;;6.15;;
4430;SDS011;2228;48.140;11.488;2022-09-21T05:49:25;15.73;;;5.88;;
4430;SDS011;2228;48.140;11.488;2022-09-21T05:52:01;10.55;;;6.30;;
4430;SDS011;2228;48.140;11.488;2022-09-21T05:54:37;13.70;;;5.60;;
4430;SDS011;2228;48.140;11.488;2022-09-21T05:57:14;16.30;;;7.30;;
4430;SDS011;2228;48.140;11.488;2022-09-21T05:59:50;12.77;;;7.80;;
4430;SDS011;2228;48.140;11.488;2022-09-21T06:02:28;14.60;;;7.50;;
4430;SDS011;2228;48.140;11.488;2022-09-21T06:05:19;16.90;;;8.55;;
4430;SDS011;2228;48.140;11.488;2022-09-21T06:07:46;15.50;;;8.70;;
4430;SDS011;2228;48.140;11.488;2022-09-21T06:10:13;13.88;;;8.80;;
4430;SDS011;2228;48.140;11.488;2022-09-21T06:12:40;12.57;;;7.57;;
4430;SDS011;2228;48.140;11.488;2022-09-21T06:15:09;16.33;;;8.60;;
4430;SDS011;2228;48.140;11.488;2022-09-21T06:17:37;15.50;;;8.82;;
4430;SDS011;2228;48.140;11.488;2022-09-21T06:20:05;19.02;;;8.80;;
4430;SDS011;2228;48.140;11.488;2022-09-21T06:22:34;21.77;;;10.40;;
4430;SDS011;2228;48.140;11.488;2022-09-21T06:25:01;25.27;;;10.30;;
4430;SDS011;2228;48.140;11.488;2022-09-21T06:27:28;20.93;;;10.40;;
4430;SDS011;2228;48.140;11.488;2022-09-21T06:29:55;20.20;;;11.23;;
4430;SDS011;2228;48.140;11.488;2022-09-21T06:32:21;21.13;;;12.10;;
4430;SDS011;2228;48.140;11.488;2022-09-21T06:34:48;21.55;;;11.75;;
4430;SDS011;2228;48.140;11.488;2022-09-21T06:37:15;18.38;;;10.90;;
4430;SDS011;2228;48.140;11.488;2022-09-21T06:39:43;25.48;;;9.73;;
4430;SDS011;2228;48.140;11.488;2022-09-21T06:42:10;21.40;;;10.63;;
4430;SDS011;2228;48.140;11.488;2022-09-21T06:44:37;20.20;;;8.55;;
4430;SDS011;2228;48.140;11.488;2022-09-21T06:47:04;17.30;;;7.93;;
4430;SDS011;2228;48.140;11.488;2022-09-21T06:49:30;10.47;;;6.63;;
4430;SDS011;2228;48.140;11.488;2022-09-21T06:51:57;13.50;;;6.38;;
4430;SDS011;2228;48.140;11.488;2022-09-21T06:54:24;11.07;;;5.50;;
4430;SDS011;2228;48.140;11.488;2022-09-21T06:56:52;14.73;;;6.55;;
4430;SDS011;2228;48.140;11.488;2022-09-21T06:59:19;14.88;;;6.07;;
4430;SDS011;2228;48.140;11.488;2022-09-21T07:01:46;12.47;;;6.47;;
4430;SDS011;2228;48.140;11.488;2022-09-21T07:04:12;18.13;;;6.65;;
4430;SDS011;2228;48.140;11.488;2022-09-21T07:06:39;10.65;;;6.22;;
4430;SDS011;2228;48.140;11.488;2022-09-21T07:09:06;12.57;;;6.47;;
4430;SDS011;2228;48.140;11.488;2022-09-21T07:11:32;9.60;;;6.13;;
4430;SDS011;2228;48.140;11.488;2022-09-21T07:14:01;8.85;;;4.90;;
4430;SDS011;2228;48.140;11.488;2022-09-21T07:16:28;11.98;;;5.50;;
4430;SDS011;2228;48.140;11.488;2022-09-21T07:18:55;11.32;;;4.90;;
4430;SDS011;2228;48.140;11.488;2022-09-21T07:21:21;11.85;;;5.85;;
4430;SDS011;2228;48.140;11.488;2022-09-21T07:23:48;7.45;;;5.10;;
4430;SDS011;2228;48.140;11.488;2022-09-21T07:26:15;17.50;;;7.07;;
4430;SDS011;2228;48.140;11.488;2022-09-21T07:28:42;9.45;;;4.80;;
4430;SDS011;2228;48.140;11.488;2022-09-21T07:31:11;8.68;;;4.10;;
4430;SDS011;2228;48.140;11.488;2022-09-21T07:33:39;6.72;;;4.30;;
4430;SDS011;2228;48.140;11.488;2022-09-21T07:36:07;5.97;;;3.30;;
4430;SDS011;2228;48.140;11.488;2022-09-21T07:38:35;6.78;;;3.00;;
4430;SDS011;2228;48.140;11.488;2022-09-21T07:41:04;6.05;;;3.20;;
4430;SDS011;2228;48.140;11.488;2022-09-21T07:43:31;5.53;;;3.17;;
4430;SDS011;2228;48.140;11.488;2022-09-21T07:45:58;4.40;;;3.20;;
4430;SDS011;2228;48.140;11.488;2022-09-21T07:48:27;5.57;;;3.50;;
4430;SDS011;2228;48.140;11.488;2022-09-21T07:50:59;5.53;;;3.20;;
4430;SDS011;2228;48.140;11.488;2022-09-21T07:53:29;5.10;;;3.60;;
4430;SDS011;2228;48.140;11.488;2022-09-21T07:55:59;7.32;;;2.90;;
4430;SDS011;2228;48.140;11.488;2022-09-21T07:58:27;9.50;;;4.20;;
4430;SDS011;2228;48.140;11.488;2022-09-21T08:01:11;8.80;;;3.67;;
4430;SDS011;2228;48.140;11.488;2022-09-21T08:03:39;3.83;;;2.90;;
4430;SDS011;2228;48.140;11.488;2022-09-21T08:06:06;7.18;;;2.60;;
4430;SDS011;2228;48.140;11.488;2022-09-21T08:08:33;8.00;;;3.17;;
4430;SDS011;2228;48.140;11.488;2022-09-21T08:11:01;4.85;;;3.10;;
4430;SDS011;2228;48.140;11.488;2022-09-21T08:13:28;5.32;;;2.22;;
4430;SDS011;2228;48.140;11.488;2022-09-21T08:15:58;3.22;;;2.13;;
4430;SDS011;2228;48.140;11.488;2022-09-21T08:18:25;4.40;;;2.90;;
4430;SDS011;2228;48.140;11.488;2022-09-21T08:20:54;3.40;;;2.00;;
4430;SDS011;2228;48.140;11.488;2022-09-21T08:23:21;3.50;;;2.58;;
4430;SDS011;2228;48.140;11.488;2022-09-21T08:25:47;6.70;;;2.38;;
4430;SDS011;2228;48.140;11.488;2022-09-21T08:28:15;2.55;;;1.63;;
4430;SDS011;2228;48.140;11.488;2022-09-21T08:30:42;5.10;;;1.58;;
4430;SDS011;2228;48.140;11.488;2022-09-21T08:33:09;4.60;;;1.60;;
4430;SDS011;2228;48.140;11.488;2022-09-21T08:35:36;1.90;;;1.40;;
4430;SDS011;2228;48.140;11.488;2022-09-21T08:38:04;4.00;;;2.00;;
4430;SDS011;2228;48.140;11.488;2022-09-21T08:40:31;6.37;;;1.70;;
4430;SDS011;2228;48.140;11.488;2022-09-21T08:42:59;5.47;;;1.40;;
4430;SDS011;2228;48.140;11.488;2022-09-21T08:45:33;2.13;;;1.40;;
4430;SDS011;2228;48.140;11.488;2022-09-21T08:48:04;3.50;;;1.60;;
4430;SDS011;2228;48.140;11.488;2022-09-21T08:50:40;3.80;;;1.40;;
4430;SDS011;2228;48.140;11.488;2022-09-21T08:53:12;6.32;;;1.80;;
4430;SDS011;2228;48.140;11.488;2022-09-21T08:55:41;4.32;;;1.20;;
4430;SDS011;2228;48.140;11.488;2022-09-21T08:58:12;2.17;;;1.20;;
4430;SDS011;2228;48.140;11.488;2022-09-21T09:00:47;3.63;;;1.30;;
4430;SDS011;2228;48.140;11.488;2022-09-21T09:03:23;2.88;;;1.50;;
4430;SDS011;2228;48.140;11.488;2022-09-21T09:06:00;3.67;;;1.40;;
4430;SDS011;2228;48.140;11.488;2022-09-21T09:08:42;3.58;;;1.20;;
4430;SDS011;2228;48.140;11.488;2022-09-21T09:11:29;2.00;;;1.10;;
4430;SDS011;2228;48.140;11.488;2022-09-21T09:17:15;1.95;;;1.00;;
4430;SDS011;2228;48.140;11.488;2022-09-21T09:19:53;1.70;;;1.13;;
4430;SDS011;2228;48.140;11.488;2022-09-21T09:22:26;2.03;;;1.10;;
4430;SDS011;2228;48.140;11.488;2022-09-21T09:24:57;1.60;;;1.10;;
4430;SDS011;2228;48.140;11.488;2022-09-21T09:27:29;1.80;;;1.10;;
4430;SDS011;2228;48.140;11.488;2022-09-21T09:30:00;1.35;;;0.90;;
4430;SDS011;2228;48.140;11.488;2022-09-21T09:32:42;2.67;;;1.00;;
4430;SDS011;2228;48.140;11.488;2022-09-21T09:35:15;2.38;;;1.00;;
4430;SDS011;2228;48.140;11.488;2022-09-21T09:37:49;3.22;;;1.30;;
4430;SDS011;2228;48.140;11.488;2022-09-21T09:40:20;2.80;;;1.20;;
4430;SDS011;2228;48.140;11.488;2022-09-21T09:42:57;2.10;;;0.80;;
4430;SDS011;2228;48.140;11.488;2022-09-21T09:45:36;5.40;;;1.00;;
4430;SDS011;2228;48.140;11.488;2022-09-21T09:48:21;4.20;;;1.20;;
4430;SDS011;2228;48.140;11.488;2022-09-21T09:50:58;1.70;;;1.10;;
4430;SDS011;2228;48.140;11.488;2022-09-21T09:53:26;1.98;;;1.00;;
4430;SDS011;2228;48.140;11.488;2022-09-21T09:55:55;2.15;;;1.00;;
4430;SDS011;2228;48.140;11.488;2022-09-21T09:58:34;2.53;;;1.42;;
4430;SDS011;2228;48.140;11.488;2022-09-21T10:01:04;3.20;;;1.30;;
4430;SDS011;2228;48.140;11.488;2022-09-21T10:03:31;1.60;;;0.90;;
4430;SDS011;2228;48.140;11.488;2022-09-21T10:05:59;4.90;;;0.93;;
4430;SDS011;2228;48.140;11.488;2022-09-21T10:08:28;1.95;;;1.10;;
4430;SDS011;2228;48.140;11.488;2022-09-21T10:11:08;1.60;;;0.90;;
4430;SDS011;2228;48.140;11.488;2022-09-21T10:13:37;1.70;;;1.00;;
4430;SDS011;2228;48.140;11.488;2022-09-21T10:16:05;2.22;;;1.08;;
4430;SDS011;2228;48.140;11.488;2022-09-21T10:18:39;3.30;;;1.25;;
4430;SDS011;2228;48.140;11.488;2022-09-21T10:21:14;2.22;;;0.90;;
4430;SDS011;2228;48.140;11.488;2022-09-21T10:23:44;2.40;;;1.00;;
4430;SDS011;2228;48.140;11.488;2022-09-21T10:26:14;1.95;;;0.90;;
4430;SDS011;2228;48.140;11.488;2022-09-21T10:28:53;4.10;;;1.23;;
4430;SDS011;2228;48.140;11.488;2022-09-21T10:31:22;2.20;;;0.80;;
4430;SDS011;2228;48.140;11.488;2022-09-21T10:33:51;1.50;;;0.87;;
4430;SDS011;2228;48.140;11.488;2022-09-21T10:36:30;2.85;;;1.00;;
4430;SDS011;2228;48.140;11.488;2022-09-21T10:39:18;1.80;;;0.90;;
4430;SDS011;2228;48.140;11.488;2022-09-21T10:41:51;3.03;;;1.10;;
4430;SDS011;2228;48.140;11.488;2022-09-21T10:44:22;2.60;;;1.00;;
4430;SDS011;2228;48.140;11.488;2022-09-21T10:46:52;1.70;;;0.80;;
4430;SDS011;2228;48.140;11.488;2022-09-21T10:49:20;1.98;;;0.77;;
4430;SDS011;2228;48.140;11.488;2022-09-21T10:51:50;3.40;;;0.90;;
4430;SDS011;2228;48.140;11.488;2022-09-21T10:54:20;3.67;;;0.93;;
4430;SDS011;2228;48.140;11.488;2022-09-21T10:56:56;2.20;;;1.10;;
4430;SDS011;2228;48.140;11.488;2022-09-21T10:59:27;6.57;;;1.30;;
4430;SDS011;2228;48.140;11.488;2022-09-21T11:01:56;1.50;;;1.00;;
4430;SDS011;2228;48.140;11.488;2022-09-21T11:04:26;3.00;;;0.90;;
4430;SDS011;2228;48.140;11.488;2022-09-21T11:07:06;5.50;;;0.90;;
4430;SDS011;2228;48.140;11.488;2022-09-21T11:09:40;3.00;;;1.10;;
4430;SDS011;2228;48.140;11.488;2022-09-21T11:12:23;1.27;;;0.90;;
4430;SDS011;2228;48.140;11.488;2022-09-21T11:15:03;3.60;;;1.20;;
4430;SDS011;2228;48.140;11.488;2022-09-21T11:17:41;3.15;;;1.00;;
4430;SDS011;2228;48.140;11.488;2022-09-21T11:20:14;3.42;;;1.10;;
4430;SDS011;2228;48.140;11.488;2022-09-21T11:22:50;3.03;;;1.00;;
4430;SDS011;2228;48.140;11.488;2022-09-21T11:25:27;6.20;;;0.90;;
4430;SDS011;2228;48.140;11.488;2022-09-21T11:28:03;1.47;;;0.87;;
4430;SDS011;2228;48.140;11.488;2022-09-21T11:30:41;1.80;;;0.83;;
4430;SDS011;2228;48.140;11.488;2022-09-21T11:33:19;2.95;;;1.10;;
4430;SDS011;2228;48.140;11.488;2022-09-21T11:35:58;4.07;;;0.98;;
4430;SDS011;2228;48.140;11.488;2022-09-21T11:38:35;2.58;;;1.10;;
4430;SDS011;2228;48.140;11.488;2022-09-21T11:41:13;2.17;;;0.90;;
4430;SDS011;2228;48.140;11.488;2022-09-21T11:43:59;1.17;;;0.80;;
4430;SDS011;2228;48.140;11.488;2022-09-21T11:46:45;2.03;;;0.70;;
4430;SDS011;2228;48.140;11.488;2022-09-21T11:49:25;1.00;;;0.80;;
4430;SDS011;2228;48.140;11.488;2022-09-21T11:52:12;1.60;;;0.90;;
4430;SDS011;2228;48.140;11.488;2022-09-21T11:54:49;1.67;;;0.88;;
4430;SDS011;2228;48.140;11.488;2022-09-21T11:57:48;2.35;;;0.80;;
4430;SDS011;2228;48.140;11.488;2022-09-21T12:00:22;1.40;;;0.80;;
4430;SDS011;2228;48.140;11.488;2022-09-21T12:05:47;1.70;;;0.77;;
4430;SDS011;2228;48.140;11.488;2022-09-21T12:08:34;1.10;;;0.80;;
4430;SDS011;2228;48.140;11.488;2022-09-21T12:11:23;0.98;;;0.80;;
4430;SDS011;2228;48.140;11.488;2022-09-21T12:13:59;2.20;;;0.70;;
4430;SDS011;2228;48.140;11.488;2022-09-21T12:16:33;1.42;;;0.85;;
4430;SDS011;2228;48.140;11.488;2022-09-21T12:19:08;2.40;;;0.77;;
4430;SDS011;2228;48.140;11.488;2022-09-21T12:21:43;2.10;;;0.80;;
4430;SDS011;2228;48.140;11.488;2022-09-21T12:24:14;2.03;;;0.80;;
4430;SDS011;2228;48.140;11.488;2022-09-21T12:26:46;2.17;;;0.90;;
4430;SDS011;2228;48.140;11.488;2022-09-21T12:29:16;1.20;;;0.70;;
4430;SDS011;2228;48.140;11.488;2022-09-21T12:31:53;1.30;;;0.80;;
4430;SDS011;2228;48.140;11.488;2022-09-21T12:34:25;1.13;;;0.70;;
4430;SDS011;2228;48.140;11.488;2022-09-21T12:36:58;5.20;;;0.70;;
4430;SDS011;2228;48.140;11.488;2022-09-21T12:39:33;1.20;;;0.70;;
4430;SDS011;2228;48.140;11.488;2022-09-21T12:42:06;1.30;;;0.90;;
4430;SDS011;2228;48.140;11.488;2022-09-21T12:44:43;1.40;;;0.70;;
4430;SDS011;2228;48.140;11.488;2022-09-21T12:47:20;2.40;;;0.70;;
4430;SDS011;2228;48.140;11.488;2022-09-21T12:49:52;1.58;;;0.60;;
4430;SDS011;2228;48.140;11.488;2022-09-21T12:52:25;1.63;;;0.60;;
4430;SDS011;2228;48.140;11.488;2022-09-21T12:54:55;3.17;;;0.80;;
4430;SDS011;2228;48.140;11.488;2022-09-21T12:57:31;0.80;;;0.60;;
4430;SDS011;2228;48.140;11.488;2022-09-21T13:00:10;1.90;;;0.70;;
4430;SDS011;2228;48.140;11.488;2022-09-21T13:02:44;2.42;;;0.90;;
4430;SDS011;2228;48.140;11.488;2022-09-21T13:05:20;1.30;;;0.70;;
4430;SDS011;2228;48.140;11.488;2022-09-21T13:08:00;1.38;;;0.80;;
4430;SDS011;2228;48.140;11.488;2022-09-21T13:10:44;1.88;;;0.98;;
4430;SDS011;2228;48.140;11.488;2022-09-21T13:13:17;1.40;;;0.70;;
4430;SDS011;2228;48.140;11.488;2022-09-21T13:15:50;1.60;;;0.70;;
4430;SDS011;2228;48.140;11.488;2022-09-21T13:18:21;1.20;;;0.68;;
4430;SDS011;2228;48.140;11.488;2022-09-21T13:20:49;1.60;;;0.80;;
4430;SDS011;2228;48.140;11.488;2022-09-21T13:23:24;3.10;;;0.80;;
4430;SDS011;2228;48.140;11.488;2022-09-21T13:26:03;1.57;;;0.70;;
4430;SDS011;2228;48.140;11.488;2022-09-21T13:28:39;1.13;;;0.70;;
4430;SDS011;2228;48.140;11.488;2022-09-21T13:31:29;2.50;;;0.77;;
4430;SDS011;2228;48.140;11.488;2022-09-21T13:34:22;1.60;;;0.60;;
4430;SDS011;2228;48.140;11.488;2022-09-21T13:43:22;1.30;;;0.80;;
4430;SDS011;2228;48.140;11.488;2022-09-21T13:49:14;2.40;;;0.70;;
4430;SDS011;2228;48.140;11.488;2022-09-21T13:51:54;1.35;;;0.80;;
4430;SDS011;2228;48.140;11.488;2022-09-21T13:54:24;1.98;;;0.60;;
4430;SDS011;2228;48.140;11.488;2022-09-21T13:56:59;1.27;;;0.70;;
4430;SDS011;2228;48.140;11.488;2022-09-21T13:59:30;1.20;;;0.80;;
4430;SDS011;2228;48.140;11.488;2022-09-21T14:01:59;1.65;;;0.90;;
4430;SDS011;2228;48.140;11.488;2022-09-21T14:04:28;1.33;;;0.80;;
4430;SDS011;2228;48.140;11.488;2022-09-21T14:07:03;1.50;;;0.80;;
4430;SDS011;2228;48.140;11.488;2022-09-21T14:09:35;1.67;;;0.70;;
4430;SDS011;2228;48.140;11.488;2022-09-21T14:12:07;1.02;;;0.65;;
4430;SDS011;2228;48.140;11.488;2022-09-21T14:14:44;1.80;;;0.80;;
4430;SDS011;2228;48.140;11.488;2022-09-21T14:17:37;0.90;;;0.70;;
4430;SDS011;2228;48.140;11.488;2022-09-21T14:20:23;1.30;;;0.70;;
4430;SDS011;2228;48.140;11.488;2022-09-21T14:25:48;1.80;;;0.70;;
4430;SDS011;2228;48.140;11.488;2022-09-21T14:28:16;1.90;;;0.80;;
4430;SDS011;2228;48.140;11.488;2022-09-21T14:30:52;2.70;;;0.70;;
4430;SDS011;2228;48.140;11.488;2022-09-21T14:33:25;2.30;;;0.80;;
4430;SDS011;2228;48.140;11.488;2022-09-21T14:35:57;1.90;;;0.80;;
4430;SDS011;2228;48.140;11.488;2022-09-21T14:38:28;1.05;;;0.60;;
4430;SDS011;2228;48.140;11.488;2022-09-21T14:41:02;0.80;;;0.60;;
4430;SDS011;2228;48.140;11.488;2022-09-21T14:43:32;1.40;;;0.60;;
4430;SDS011;2228;48.140;11.488;2022-09-21T14:46:12;1.20;;;0.65;;
4430;SDS011;2228;48.140;11.488;2022-09-21T14:48:50;0.80;;;0.53;;
4430;SDS011;2228;48.140;11.488;2022-09-21T14:51:27;1.00;;;0.70;;
4430;SDS011;2228;48.140;11.488;2022-09-21T14:59:53;1.40;;;0.75;;
4430;SDS011;2228;48.140;11.488;2022-09-21T15:02:31;1.27;;;0.77;;
4430;SDS011;2228;48.140;11.488;2022-09-21T15:05:02;4.63;;;1.35;;
4430;SDS011;2228;48.140;11.488;2022-09-21T15:07:36;3.80;;;1.00;;
4430;SDS011;2228;48.140;11.488;2022-09-21T15:10:27;2.00;;;0.90;;
4430;SDS011;2228;48.140;11.488;2022-09-21T15:13:16;1.30;;;0.60;;
4430;SDS011;2228;48.140;11.488;2022-09-21T15:16:07;1.50;;;0.60;;
4430;SDS011;2228;48.140;11.488;2022-09-21T15:18:45;1.00;;;0.70;;
4430;SDS011;2228;48.140;11.488;2022-09-21T15:21:21;1.60;;;0.80;;
4430;SDS011;2228;48.140;11.488;2022-09-21T15:23:50;3.90;;;0.80;;
4430;SDS011;2228;48.140;11.488;2022-09-21T15:26:19;1.77;;;0.90;;
4430;SDS011;2228;48.140;11.488;2022-09-21T15:28:52;1.85;;;1.00;;
4430;SDS011;2228;48.140;11.488;2022-09-21T15:31:20;1.00;;;0.80;;
4430;SDS011;2228;48.140;11.488;2022-09-21T15:33:49;0.82;;;0.60;;
4430;SDS011;2228;48.140;11.488;2022-09-21T15:36:21;0.80;;;0.70;;
4430;SDS011;2228;48.140;11.488;2022-09-21T15:38:51;0.70;;;0.70;;
4430;SDS011;2228;48.140;11.488;2022-09-21T15:41:37;2.10;;;0.60;;
4430;SDS011;2228;48.140;11.488;2022-09-21T15:44:11;1.60;;;0.77;;
4430;SDS011;2228;48.140;11.488;2022-09-21T15:46:40;1.20;;;0.73;;
4430;SDS011;2228;48.140;11.488;2022-09-21T15:49:13;1.30;;;0.80;;
4430;SDS011;2228;48.140;11.488;2022-09-21T15:51:45;1.00;;;0.80;;